Wilbur, Kentucky
Current Conditions -  °F | °C
As of 5:15 AM on Thursday 18 Dec 2014 (Local Time) from KSJS Reporting Station
Overcast Overcast  
Wind Chill: 30°   Ceiling: 2000
Heat Index: 30°   Visibility: 10mi
Dew Point: 25°   Wind: 0mph
Humidity: 81%   Direction: NA
Pressure: 30.23"   Gusts: NA
Location:  38.0348°N, 82.8583°W
Report Text: KSJS 181015Z AUTO 00000KT 10SM OVC020 M01/M04 A3023 RMK AO2 T10121041
Loading
Personal Weather Stations






























Interactive Weather Map New forecast layout! Learn more

10-Day Weather Forecast

Advertisements
Track Severe Weather on mobile